createdAt,value
2022-11-11T00:00:20.165Z,102006.25
2022-11-11T00:03:05.500Z,102007.47
2022-11-11T00:05:50.585Z,102004.16
2022-11-11T00:08:35.966Z,102019.53
2022-11-11T00:11:21.058Z,102012.31
2022-11-11T00:14:06.432Z,102015.41
2022-11-11T00:17:17.602Z,102024.88
2022-11-11T00:20:24.312Z,102048.84
2022-11-11T00:23:40.240Z,102050.88
2022-11-11T00:26:39.017Z,102041.69
2022-11-11T00:29:25.786Z,102041.53
2022-11-11T00:32:23.437Z,102037.84
2022-11-11T00:35:27.893Z,102046.50
2022-11-11T00:38:34.540Z,102035.69
2022-11-11T00:41:24.415Z,102037.97
2022-11-11T00:44:09.970Z,102034.88
2022-11-11T00:47:14.016Z,102042.72
2022-11-11T00:50:18.158Z,102036.91
2022-11-11T00:53:26.994Z,102049.16
2022-11-11T00:56:12.992Z,102054.81
2022-11-11T00:58:58.199Z,102053.97
2022-11-11T01:01:44.099Z,102052.63
2022-11-11T01:04:29.527Z,102063.75
2022-11-11T01:07:15.034Z,102067.69
2022-11-11T01:10:00.432Z,102061.59
2022-11-11T01:12:48.622Z,102064.38
2022-11-11T01:15:34.485Z,102062.19
2022-11-11T01:18:24.043Z,102063.31
2022-11-11T01:21:17.761Z,102058.03
2022-11-11T01:24:03.622Z,102047.75
2022-11-11T01:26:48.851Z,102043.09
2022-11-11T01:29:34.094Z,102045.31
2022-11-11T01:32:19.858Z,102051.19
2022-11-11T01:35:07.181Z,102051.78
2022-11-11T01:37:53.117Z,102052.91
2022-11-11T01:40:47.033Z,102052.91
2022-11-11T01:43:32.770Z,102066.84
2022-11-11T01:46:43.889Z,102063.00
2022-11-11T01:49:54.659Z,102068.56
2022-11-11T01:52:45.347Z,102060.81
2022-11-11T01:55:32.167Z,102063.59
2022-11-11T01:58:19.667Z,102057.97
2022-11-11T02:01:09.171Z,102067.31
2022-11-11T02:04:16.795Z,102067.75
2022-11-11T02:07:06.373Z,102070.00
2022-11-11T02:09:53.163Z,102064.22
2022-11-11T02:12:57.308Z,102059.03
2022-11-11T02:15:44.248Z,102060.25
2022-11-11T02:18:32.454Z,102063.06
2022-11-11T02:21:28.574Z,102063.00
2022-11-11T02:24:18.015Z,102058.88
2022-11-11T02:27:05.604Z,102064.19
2022-11-11T02:29:55.341Z,102054.19
2022-11-11T02:32:49.780Z,102041.44
2022-11-11T02:35:44.182Z,102050.41
2022-11-11T02:38:30.998Z,102044.84
2022-11-11T02:41:35.879Z,102048.16
2022-11-11T02:44:21.373Z,102051.00
2022-11-11T02:47:06.824Z,102049.34
2022-11-11T02:49:52.567Z,102044.13
2022-11-11T02:52:38.216Z,102037.75
2022-11-11T02:55:23.896Z,102035.19
2022-11-11T02:58:09.815Z,102039.41
2022-11-11T03:00:55.441Z,102043.19
2022-11-11T03:03:40.661Z,102039.41
2022-11-11T03:06:26.060Z,102033.84
2022-11-11T03:09:11.611Z,102035.28
2022-11-11T03:11:57.410Z,102036.88
2022-11-11T03:14:43.215Z,102029.47
2022-11-11T03:17:40.624Z,102033.16
2022-11-11T03:20:44.770Z,102033.97
2022-11-11T03:23:48.170Z,102035.03
2022-11-11T03:26:33.368Z,102033.69
2022-11-11T03:29:18.591Z,102031.75
2022-11-11T03:32:04.130Z,102042.38
2022-11-11T03:34:49.947Z,102032.91
2022-11-11T03:37:54.789Z,102031.84
2022-11-11T03:40:39.940Z,102039.06
2022-11-11T03:43:29.607Z,102043.56
2022-11-11T03:46:15.052Z,102031.75
2022-11-11T03:48:59.949Z,102037.41
2022-11-11T03:51:45.407Z,102030.66
2022-11-11T03:54:30.670Z,102027.69
2022-11-11T03:57:30.723Z,102022.91
2022-11-11T04:00:20.094Z,102021.31
2022-11-11T04:03:34.668Z,102020.72
2022-11-11T04:06:39.000Z,102019.84
2022-11-11T04:09:43.168Z,102025.81
2022-11-11T04:12:29.137Z,102022.91
2022-11-11T04:15:35.913Z,102021.78
2022-11-11T04:18:40.924Z,102022.13
2022-11-11T04:21:44.232Z,102018.00
2022-11-11T04:24:50.133Z,102020.25
2022-11-11T04:27:35.022Z,102017.75
2022-11-11T04:30:20.474Z,102019.66
2022-11-11T04:33:25.075Z,102010.06
2022-11-11T04:36:10.451Z,102016.22
2022-11-11T04:39:14.639Z,102021.47
2022-11-11T04:42:08.151Z,102020.84
2022-11-11T04:45:12.618Z,102023.31
2022-11-11T04:48:06.686Z,102026.41
2022-11-11T04:50:52.372Z,102048.53
2022-11-11T04:53:37.809Z,102040.34
2022-11-11T04:56:41.143Z,102041.75
2022-11-11T04:59:26.505Z,102042.00
2022-11-11T05:02:30.232Z,102044.13
2022-11-11T05:05:15.932Z,102055.25
2022-11-11T05:08:19.734Z,102046.72
2022-11-11T05:11:05.541Z,102044.25
2022-11-11T05:14:09.776Z,102044.84
2022-11-11T05:17:16.634Z,102046.97
2022-11-11T05:20:20.688Z,102036.78
2022-11-11T05:23:06.562Z,102040.69
2022-11-11T05:25:53.890Z,102039.22
2022-11-11T05:28:38.890Z,102035.34
2022-11-11T05:31:24.354Z,102028.19
2022-11-11T05:34:09.851Z,102037.63
2022-11-11T05:36:55.225Z,102038.47
2022-11-11T05:39:40.571Z,102037.63
2022-11-11T05:42:25.800Z,102045.41
2022-11-11T05:45:11.155Z,102045.09
2022-11-11T05:48:01.347Z,102036.78
2022-11-11T05:50:46.804Z,102055.97
2022-11-11T05:53:31.706Z,102047.31
2022-11-11T05:56:17.406Z,102054.88
2022-11-11T05:59:03.149Z,102057.69
2022-11-11T06:01:48.818Z,102064.16
2022-11-11T06:04:35.549Z,102059.13
2022-11-11T06:07:21.048Z,102060.41
2022-11-11T06:10:25.462Z,102057.75
2022-11-11T06:13:10.698Z,102059.66
2022-11-11T06:15:57.522Z,102058.69
2022-11-11T06:18:43.244Z,102063.78
2022-11-11T06:21:28.855Z,102064.09
2022-11-11T06:24:14.467Z,102065.22
2022-11-11T06:27:00.001Z,102062.09
2022-11-11T06:29:44.986Z,102060.78
2022-11-11T06:32:30.329Z,102068.31
2022-11-11T06:35:15.973Z,102067.75
2022-11-11T06:38:02.817Z,102070.31
2022-11-11T06:40:48.197Z,102082.03
2022-11-11T06:43:33.763Z,102080.63
2022-11-11T06:46:26.134Z,102085.06
2022-11-11T06:49:11.007Z,102082.34
2022-11-11T06:51:56.616Z,102084.53
2022-11-11T06:54:41.667Z,102073.75
2022-11-11T06:57:27.311Z,102084.06
2022-11-11T07:00:14.039Z,102082.66
2022-11-11T07:02:59.055Z,102085.22
2022-11-11T07:05:45.659Z,102084.66
2022-11-11T07:08:32.073Z,102094.91
2022-11-11T07:11:19.258Z,102095.13
2022-11-11T07:14:05.060Z,102094.66
2022-11-11T07:16:50.443Z,102091.34
2022-11-11T07:19:36.297Z,102086.84
2022-11-11T07:22:21.645Z,102096.34
2022-11-11T07:25:07.523Z,102100.47
2022-11-11T07:27:58.723Z,102100.44
2022-11-11T07:30:44.415Z,102101.88
2022-11-11T07:33:29.500Z,102111.34
2022-11-11T07:36:14.849Z,102122.78
2022-11-11T07:39:02.813Z,102119.09
2022-11-11T07:41:51.455Z,102121.03
2022-11-11T07:44:36.464Z,102119.72
2022-11-11T07:47:22.159Z,102123.34
2022-11-11T07:50:08.680Z,102115.53
2022-11-11T07:52:54.112Z,102125.28
2022-11-11T07:55:39.172Z,102132.47
2022-11-11T07:58:25.360Z,102142.22
2022-11-11T08:01:13.778Z,102142.47
2022-11-11T08:03:59.164Z,102142.44
2022-11-11T08:06:44.465Z,102142.69
2022-11-11T08:09:29.835Z,102149.66
2022-11-11T08:12:37.110Z,102154.69
2022-11-11T08:15:22.661Z,102159.69
2022-11-11T08:18:08.476Z,102161.84
2022-11-11T08:20:55.212Z,102168.41
2022-11-11T08:24:22.676Z,102170.78
2022-11-11T08:26:47.087Z,102176.94
2022-11-11T08:29:32.385Z,102181.84
2022-11-11T08:32:17.795Z,102180.66
2022-11-11T08:35:02.923Z,102180.28
2022-11-11T08:37:48.077Z,102173.72
2022-11-11T08:40:33.876Z,102175.88
2022-11-11T08:43:19.650Z,102179.16
2022-11-11T08:46:06.120Z,102173.53
2022-11-11T08:48:51.758Z,102175.22
2022-11-11T08:51:43.426Z,102172.56
2022-11-11T08:54:30.323Z,102177.03
2022-11-11T08:57:15.717Z,102174.81
2022-11-11T09:00:01.213Z,102174.81
2022-11-11T09:02:46.116Z,102168.44
2022-11-11T09:05:32.174Z,102173.63
2022-11-11T09:08:17.178Z,102179.75
2022-11-11T09:11:03.185Z,102190.81
2022-11-11T09:13:48.808Z,102189.97
2022-11-11T09:16:34.128Z,102189.66
2022-11-11T09:19:19.883Z,102192.63
2022-11-11T09:22:05.799Z,102197.88
2022-11-11T09:24:51.765Z,102192.75
2022-11-11T09:27:37.693Z,102186.00
2022-11-11T09:30:23.659Z,102181.50
2022-11-11T09:33:09.822Z,102195.63
2022-11-11T09:35:55.288Z,102183.63
2022-11-11T09:38:40.785Z,102193.03
2022-11-11T09:42:05.252Z,102189.38
2022-11-11T09:45:04.242Z,102185.75
2022-11-11T09:48:19.534Z,102190.16
2022-11-11T09:51:09.438Z,102187.03
2022-11-11T09:54:00.652Z,102181.72
2022-11-11T09:56:53.201Z,102190.59
2022-11-11T09:59:52.295Z,102195.84
2022-11-11T10:02:37.677Z,102201.41
2022-11-11T10:05:38.851Z,102197.50
2022-11-11T10:08:36.114Z,102195.41
2022-11-11T10:11:39.728Z,102185.38
2022-11-11T10:14:32.352Z,102187.56
2022-11-11T10:17:32.830Z,102191.44
2022-11-11T10:20:21.135Z,102186.34
2022-11-11T10:23:18.348Z,102181.03
2022-11-11T10:26:39.540Z,102182.41
2022-11-11T10:29:31.184Z,102182.63
2022-11-11T10:32:25.308Z,102191.50
2022-11-11T10:35:23.275Z,102190.06
2022-11-11T10:38:11.545Z,102191.38
2022-11-11T10:41:04.353Z,102188.88
2022-11-11T10:43:50.063Z,102193.84
2022-11-11T10:46:45.124Z,102187.16
2022-11-11T10:49:37.648Z,102179.84
2022-11-11T10:52:34.165Z,102182.94
2022-11-11T10:55:56.814Z,102186.47
2022-11-11T10:59:12.825Z,102186.47
2022-11-11T11:02:10.320Z,102181.97
2022-11-11T11:05:01.890Z,102183.00
2022-11-11T11:07:50.964Z,102193.78
2022-11-11T11:10:41.063Z,102185.56
2022-11-11T11:13:36.464Z,102186.63
2022-11-11T11:16:29.192Z,102182.28
2022-11-11T11:19:18.498Z,102189.63
2022-11-11T11:22:05.191Z,102185.06
2022-11-11T11:24:50.705Z,102175.78
2022-11-11T11:27:35.970Z,102181.59
2022-11-11T11:30:23.825Z,102180.53
2022-11-11T11:33:10.170Z,102182.19
2022-11-11T11:35:55.205Z,102176.00
2022-11-11T11:38:50.779Z,102173.13
2022-11-11T11:41:40.478Z,102173.66
2022-11-11T11:44:30.524Z,102174.38
2022-11-11T11:47:34.943Z,102168.81
2022-11-11T11:50:42.294Z,102170.97
2022-11-11T11:53:30.488Z,102163.16
2022-11-11T11:56:28.809Z,102167.56
2022-11-11T11:59:22.849Z,102168.00
2022-11-11T12:02:46.944Z,102166.44
2022-11-11T12:05:44.028Z,102169.84
2022-11-11T12:09:00.716Z,102169.97
2022-11-11T12:12:06.099Z,102157.03
2022-11-11T12:15:04.408Z,102158.69
2022-11-11T12:18:01.403Z,102168.50
2022-11-11T12:21:02.675Z,102159.50
2022-11-11T12:23:58.513Z,102153.72
2022-11-11T12:27:07.781Z,102155.34
2022-11-11T12:30:08.220Z,102148.75
2022-11-11T12:33:06.695Z,102145.00
2022-11-11T12:35:55.569Z,102136.13
2022-11-11T12:42:13.301Z,102140.06
2022-11-11T12:45:13.310Z,102136.97
2022-11-11T12:48:25.373Z,102134.19
2022-11-11T12:51:28.849Z,102131.00
2022-11-11T12:54:48.245Z,102126.41
2022-11-11T12:57:36.469Z,102130.34
2022-11-11T13:00:24.596Z,102124.47
2022-11-11T13:03:27.067Z,102127.03
2022-11-11T13:06:42.986Z,102125.59
2022-11-11T13:09:57.457Z,102124.75
2022-11-11T13:12:45.734Z,102117.03
2022-11-11T13:15:31.284Z,102115.25
2022-11-11T13:18:24.985Z,102108.00
2022-11-11T13:21:19.934Z,102105.53
2022-11-11T13:24:13.387Z,102105.22
2022-11-11T13:27:06.620Z,102102.25
2022-11-11T13:30:19.523Z,102100.78
2022-11-11T13:33:13.886Z,102105.53
2022-11-11T13:36:02.845Z,102100.34
2022-11-11T13:39:00.146Z,102099.94
2022-11-11T13:41:51.641Z,102104.28
2022-11-11T13:44:50.473Z,102104.72
2022-11-11T13:47:44.276Z,102097.91
2022-11-11T13:50:33.441Z,102098.69
2022-11-11T13:53:29.504Z,102091.44
2022-11-11T13:56:36.204Z,102088.53
2022-11-11T13:59:25.753Z,102080.69
2022-11-11T14:02:20.338Z,102085.63
2022-11-11T14:05:06.303Z,102073.44
2022-11-11T14:07:55.019Z,102091.53
2022-11-11T14:10:40.081Z,102094.31
2022-11-11T14:13:32.452Z,102088.13
2022-11-11T14:16:36.303Z,102083.38
2022-11-11T14:19:21.679Z,102086.69
2022-11-11T14:22:33.155Z,102074.44
2022-11-11T14:25:28.867Z,102079.66
2022-11-11T14:28:30.001Z,102080.41
2022-11-11T14:31:16.015Z,102083.81
2022-11-11T14:34:47.574Z,102082.78
2022-11-11T14:37:56.381Z,102074.50
2022-11-11T14:40:42.030Z,102078.97
2022-11-11T14:43:39.029Z,102081.13
2022-11-11T14:46:24.402Z,102083.81
2022-11-11T14:49:09.883Z,102085.88
2022-11-11T14:51:58.788Z,102081.13
2022-11-11T14:55:02.454Z,102089.59
2022-11-11T14:58:08.583Z,102087.63
2022-11-11T15:01:12.267Z,102084.00
2022-11-11T15:04:03.996Z,102087.97
2022-11-11T15:06:59.871Z,102088.97
2022-11-11T15:10:06.699Z,102086.09
2022-11-11T15:12:56.361Z,102087.22
2022-11-11T15:15:53.324Z,102077.19
2022-11-11T15:19:10.331Z,102081.09
2022-11-11T15:22:34.868Z,102081.31
2022-11-11T15:25:43.285Z,102082.81
2022-11-11T15:28:59.900Z,102090.63
2022-11-11T15:32:19.122Z,102088.94
2022-11-11T15:35:22.340Z,102086.69
2022-11-11T15:38:13.061Z,102082.94
2022-11-11T15:41:00.516Z,102082.94
2022-11-11T15:43:45.790Z,102078.41
2022-11-11T15:46:35.130Z,102087.91
2022-11-11T15:49:47.649Z,102081.63
2022-11-11T15:52:36.081Z,102083.69
2022-11-11T15:55:30.289Z,102084.81
2022-11-11T15:58:17.838Z,102088.78
2022-11-11T16:01:08.195Z,102090.53
2022-11-11T16:03:53.510Z,102090.84
2022-11-11T16:06:39.312Z,102085.56
2022-11-11T16:09:28.114Z,102081.53
2022-11-11T16:12:19.746Z,102090.84
2022-11-11T16:15:08.885Z,102085.88
2022-11-11T16:18:00.974Z,102096.84
2022-11-11T16:20:56.111Z,102092.41
2022-11-11T16:23:42.641Z,102096.44
2022-11-11T16:26:28.545Z,102089.84
2022-11-11T16:29:15.854Z,102096.53
2022-11-11T16:32:01.351Z,102097.69
2022-11-11T16:34:48.217Z,102102.03
2022-11-11T16:37:50.754Z,102102.84
2022-11-11T16:40:42.638Z,102102.34
2022-11-11T16:43:42.655Z,102098.50
2022-11-11T16:46:37.094Z,102096.56
2022-11-11T16:49:42.118Z,102094.38
2022-11-11T16:52:28.713Z,102089.09
2022-11-11T16:55:30.573Z,102097.06
2022-11-11T16:58:22.239Z,102098.09
2022-11-11T17:01:08.431Z,102094.69
2022-11-11T17:03:56.587Z,102092.50
2022-11-11T17:06:52.623Z,102095.09
2022-11-11T17:09:40.393Z,102091.03
2022-11-11T17:12:32.338Z,102091.03
2022-11-11T17:15:21.096Z,102094.56
2022-11-11T17:18:09.026Z,102091.94
2022-11-11T17:20:55.806Z,102094.13
2022-11-11T17:23:41.094Z,102103.03
2022-11-11T17:26:26.087Z,102095.91
2022-11-11T17:29:12.578Z,102099.94
2022-11-11T17:31:57.670Z,102103.47
2022-11-11T17:34:42.559Z,102098.09
2022-11-11T17:37:27.751Z,102097.38
2022-11-11T17:40:13.034Z,102102.44
2022-11-11T17:42:58.624Z,102096.88
2022-11-11T17:45:43.875Z,102096.66
2022-11-11T17:48:28.855Z,102091.56
2022-11-11T17:51:14.397Z,102102.25
2022-11-11T17:53:59.690Z,102096.66
2022-11-11T17:56:46.586Z,102093.25
2022-11-11T17:59:31.970Z,102095.00
2022-11-11T18:02:17.367Z,102095.81
2022-11-11T18:05:05.496Z,102090.03
2022-11-11T18:07:51.168Z,102104.09
2022-11-11T18:10:37.174Z,102108.66
2022-11-11T18:13:22.770Z,102108.13
2022-11-11T18:16:15.106Z,102106.56
2022-11-11T18:19:01.558Z,102100.19
2022-11-11T18:21:47.112Z,102104.72
2022-11-11T18:24:32.344Z,102111.94
2022-11-11T18:27:18.063Z,102111.41
2022-11-11T18:30:06.559Z,102117.59
2022-11-11T18:32:52.110Z,102122.69
2022-11-11T18:35:37.786Z,102120.22
2022-11-11T18:38:23.498Z,102128.88
2022-11-11T18:41:10.159Z,102120.00
2022-11-11T18:43:55.543Z,102116.66
2022-11-11T18:46:43.475Z,102118.09
2022-11-11T18:49:28.803Z,102123.69
2022-11-11T18:52:14.062Z,102122.88
2022-11-11T18:54:59.936Z,102117.91
2022-11-11T18:57:45.542Z,102115.41
2022-11-11T19:00:30.713Z,102121.00
2022-11-11T19:03:15.746Z,102118.50
2022-11-11T19:06:07.252Z,102132.16
2022-11-11T19:09:00.960Z,102132.16
2022-11-11T19:11:47.217Z,102135.53
2022-11-11T19:14:32.691Z,102131.91
2022-11-11T19:17:18.014Z,102131.09
2022-11-11T19:20:04.175Z,102135.09
2022-11-11T19:22:49.560Z,102143.66
2022-11-11T19:25:38.717Z,102147.84
2022-11-11T19:28:25.395Z,102145.34
2022-11-11T19:31:22.248Z,102144.81
2022-11-11T19:34:10.689Z,102150.91
2022-11-11T19:36:56.087Z,102151.53
2022-11-11T19:39:42.894Z,102136.44
2022-11-11T19:42:27.970Z,102151.53
2022-11-11T19:45:13.075Z,102148.44
2022-11-11T19:47:58.558Z,102146.78
2022-11-11T19:50:43.644Z,102146.78
2022-11-11T19:53:29.009Z,102153.19
2022-11-11T19:56:17.618Z,102155.25
2022-11-11T19:59:05.512Z,102164.72
2022-11-11T20:01:50.654Z,102163.59
2022-11-11T20:04:36.303Z,102164.22
2022-11-11T20:07:21.960Z,102168.13
2022-11-11T20:10:08.271Z,102167.53
2022-11-11T20:12:53.729Z,102166.16
2022-11-11T20:15:39.250Z,102169.25
2022-11-11T20:18:24.606Z,102164.31
2022-11-11T20:21:12.524Z,102160.38
2022-11-11T20:23:59.119Z,102161.44
2022-11-11T20:26:45.954Z,102160.88
2022-11-11T20:29:34.079Z,102147.03
2022-11-11T20:32:19.701Z,102157.06
2022-11-11T20:35:06.393Z,102146.41
2022-11-11T20:37:51.982Z,102143.13
2022-11-11T20:40:37.451Z,102153.66
2022-11-11T20:43:23.771Z,102149.53
2022-11-11T20:46:12.295Z,102153.94
2022-11-11T20:48:57.692Z,102159.25
2022-11-11T20:51:43.062Z,102164.50
2022-11-11T20:54:28.328Z,102169.06
2022-11-11T20:57:16.281Z,102170.78
2022-11-11T21:00:02.300Z,102171.91
2022-11-11T21:02:47.710Z,102175.09
2022-11-11T21:05:33.129Z,102173.44
2022-11-11T21:08:18.713Z,102181.78
2022-11-11T21:11:05.494Z,102179.09
2022-11-11T21:13:55.610Z,102192.28
2022-11-11T21:16:40.937Z,102190.38
2022-11-11T21:19:26.994Z,102189.34
2022-11-11T21:22:12.063Z,102182.69
2022-11-11T21:24:57.666Z,102181.06
2022-11-11T21:27:42.798Z,102184.81
2022-11-11T21:30:28.084Z,102203.50
2022-11-11T21:33:13.212Z,102197.31
2022-11-11T21:36:26.380Z,102192.06
2022-11-11T21:39:11.864Z,102200.78
2022-11-11T21:41:57.008Z,102197.69
2022-11-11T21:44:41.964Z,102189.88
2022-11-11T21:47:26.871Z,102200.63
2022-11-11T21:50:12.386Z,102203.94
2022-11-11T21:52:57.792Z,102200.63
2022-11-11T21:55:42.809Z,102203.13
2022-11-11T21:58:29.205Z,102215.63
2022-11-11T22:01:24.083Z,102211.72
2022-11-11T22:04:13.648Z,102222.09
2022-11-11T22:06:59.077Z,102204.78
2022-11-11T22:09:44.551Z,102210.66
2022-11-11T22:12:33.582Z,102205.66
2022-11-11T22:15:22.142Z,102207.09
2022-11-11T22:18:07.495Z,102204.41
2022-11-11T22:20:53.557Z,102196.13
2022-11-11T22:23:39.533Z,102195.88
2022-11-11T22:26:26.978Z,102197.91
2022-11-11T22:29:13.256Z,102205.53
2022-11-11T22:31:59.849Z,102199.47
2022-11-11T22:34:45.277Z,102208.66
2022-11-11T22:37:30.922Z,102201.50
2022-11-11T22:40:16.209Z,102210.19
2022-11-11T22:43:01.742Z,102209.34
2022-11-11T22:45:57.649Z,102204.13
2022-11-11T22:48:54.341Z,102198.34
2022-11-11T22:51:43.959Z,102205.59
2022-11-11T22:54:29.272Z,102201.22
2022-11-11T22:57:14.323Z,102215.13
2022-11-11T22:59:59.280Z,102213.00
2022-11-11T23:02:44.800Z,102218.56
2022-11-11T23:05:29.941Z,102211.94
2022-11-11T23:08:15.270Z,102211.41
2022-11-11T23:11:18.866Z,102213.09
2022-11-11T23:14:12.587Z,102214.31
2022-11-11T23:16:58.114Z,102209.63
2022-11-11T23:19:43.382Z,102212.13
2022-11-11T23:22:28.775Z,102217.72
2022-11-11T23:25:14.004Z,102218.03
2022-11-11T23:27:59.256Z,102227.25
2022-11-11T23:30:44.616Z,102230.03
2022-11-11T23:33:31.742Z,102225.09
2022-11-11T23:36:20.765Z,102223.41
2022-11-11T23:39:05.934Z,102225.66
2022-11-11T23:41:52.297Z,102222.06
2022-11-11T23:44:38.191Z,102220.69
2022-11-11T23:47:23.666Z,102215.94
2022-11-11T23:50:09.550Z,102217.34
2022-11-11T23:52:54.910Z,102208.97
2022-11-11T23:55:40.375Z,102208.41
2022-11-11T23:58:25.730Z,102215.16
